KFKN/FKN METAR and TAF weather

Enter ICAO airport designator
Station Type Date Time Source
KFKN METAR 2019/12/08 13:35 UTC NOAA

KFKN 081335Z AUTO 00000KT 10SM CLR 00/M01 A3049 RMK AO2 T10011010


Station Type Date Time Source
KFKN Decoded METAR 2019/12/08 13:35 UTC NOAA

Franklin / J B Rose, VA, United States (KFKN) 36-42N 076-54W
Dec 08, 2019 - 08:35 AM EST / 2019.12.08 1335 UTC
Wind: Calm:0
Visibility: 10 mile(s):0
Sky conditions: clear
Temperature: 31.8 F (-0.1 C)
Dew Point: 30.2 F (-1.0 C)
Relative Humidity: 93%
Pressure (altimeter): 30.49 in. Hg (1032 hPa)
ob: KFKN 081335Z AUTO 00000KT 10SM CLR 00/M01 A3049 RMK AO2 T10011010
cycle: 13

Station Type Date Time Source
KFKN TAF UTC NOAA

Error!

Example: see airport list